createdAt,value
2023-04-15T00:01:43.834Z,10.33
2023-04-15T00:04:13.721Z,10.10
2023-04-15T00:06:43.641Z,10.04
2023-04-15T00:09:14.031Z,10.06
2023-04-15T00:11:43.849Z,10.08
2023-04-15T00:14:14.434Z,10.07
2023-04-15T00:16:44.377Z,9.98
2023-04-15T00:19:14.323Z,9.94
2023-04-15T00:21:43.930Z,9.99
2023-04-15T00:24:13.570Z,9.95
2023-04-15T00:26:43.703Z,9.78
2023-04-15T00:29:13.614Z,9.69
2023-04-15T00:31:43.499Z,9.68
2023-04-15T00:34:13.956Z,9.72
2023-04-15T00:36:45.780Z,9.55
2023-04-15T00:39:17.378Z,9.79
2023-04-15T00:41:47.742Z,9.75
2023-04-15T00:44:18.858Z,9.60
2023-04-15T00:46:51.750Z,9.62
2023-04-15T00:49:21.955Z,9.64
2023-04-15T00:51:52.374Z,9.31
2023-04-15T00:54:23.254Z,9.32
2023-04-15T00:56:53.141Z,9.35
2023-04-15T00:59:23.101Z,9.39
2023-04-15T01:01:53.150Z,9.42
2023-04-15T01:04:23.181Z,9.16
2023-04-15T01:06:53.069Z,9.26
2023-04-15T01:09:22.965Z,9.29
2023-04-15T01:11:53.771Z,9.35
2023-04-15T01:14:23.276Z,9.19
2023-04-15T01:16:54.736Z,9.34
2023-04-15T01:19:24.527Z,9.28
2023-04-15T01:21:54.991Z,9.27
2023-04-15T01:24:27.209Z,9.00
2023-04-15T01:26:57.025Z,9.02
2023-04-15T01:29:27.488Z,8.96
2023-04-15T01:31:58.126Z,8.98
2023-04-15T01:34:29.440Z,8.82
2023-04-15T01:36:59.539Z,8.91
2023-04-15T01:39:29.453Z,8.88
2023-04-15T01:41:59.265Z,8.74
2023-04-15T01:44:29.058Z,8.83
2023-04-15T01:46:59.033Z,8.71
2023-04-15T01:49:29.123Z,8.52
2023-04-15T01:51:58.997Z,8.66
2023-04-15T01:54:28.488Z,8.53
2023-04-15T01:56:58.797Z,8.53
2023-04-15T01:59:28.587Z,8.53
2023-04-15T02:01:58.838Z,8.61
2023-04-15T02:04:29.474Z,8.30
2023-04-15T02:07:01.724Z,8.30
2023-04-15T02:12:02.065Z,8.37
2023-04-15T02:14:32.232Z,8.46
2023-04-15T02:17:03.726Z,8.39
2023-04-15T02:19:34.067Z,8.41
2023-04-15T02:22:08.469Z,8.37
2023-04-15T02:24:38.558Z,8.37
2023-04-15T02:27:08.461Z,8.44
2023-04-15T02:29:38.312Z,8.40
2023-04-15T02:32:11.983Z,8.32
2023-04-15T02:34:42.869Z,8.33
2023-04-15T02:37:14.275Z,8.28
2023-04-15T02:39:44.082Z,8.36
2023-04-15T02:42:14.032Z,8.28
2023-04-15T02:44:44.418Z,8.13
2023-04-15T02:50:40.510Z,8.14
2023-04-15T02:53:11.256Z,8.02
2023-04-15T02:55:42.765Z,8.00
2023-04-15T02:58:13.171Z,7.97
2023-04-15T03:00:42.986Z,8.00
2023-04-15T03:03:15.199Z,8.00
2023-04-15T03:05:45.871Z,8.07
2023-04-15T03:08:15.877Z,8.07
2023-04-15T03:10:45.713Z,8.11
2023-04-15T03:13:15.945Z,7.88
2023-04-15T03:15:48.407Z,7.99
2023-04-15T03:18:18.115Z,8.13
2023-04-15T03:20:48.171Z,7.87
2023-04-15T03:23:18.206Z,7.88
2023-04-15T03:25:48.222Z,7.99
2023-04-15T03:28:18.049Z,7.86
2023-04-15T03:30:48.175Z,7.92
2023-04-15T03:33:18.081Z,7.88
2023-04-15T03:35:47.979Z,7.73
2023-04-15T03:38:17.920Z,7.85
2023-04-15T03:40:48.546Z,7.85
2023-04-15T03:43:18.504Z,7.79
2023-04-15T03:45:48.296Z,7.79
2023-04-15T03:48:18.522Z,7.86
2023-04-15T03:50:48.456Z,7.75
2023-04-15T03:53:18.597Z,7.85
2023-04-15T03:55:48.486Z,7.75
2023-04-15T03:58:18.778Z,7.85
2023-04-15T04:00:48.616Z,7.69
2023-04-15T04:03:19.057Z,7.65
2023-04-15T04:05:49.328Z,7.72
2023-04-15T04:08:19.689Z,7.78
2023-04-15T04:10:49.561Z,7.65
2023-04-15T04:13:19.712Z,7.64
2023-04-15T04:15:49.584Z,7.66
2023-04-15T04:18:19.106Z,7.55
2023-04-15T04:20:49.053Z,7.55
2023-04-15T04:23:19.026Z,7.53
2023-04-15T04:25:48.926Z,7.47
2023-04-15T04:28:18.811Z,7.47
2023-04-15T04:30:48.617Z,7.57
2023-04-15T04:33:18.732Z,7.48
2023-04-15T04:35:48.536Z,7.56
2023-04-15T04:38:18.057Z,7.35
2023-04-15T04:40:48.277Z,7.45
2023-04-15T04:43:18.241Z,7.37
2023-04-15T04:45:47.910Z,7.26
2023-04-15T04:48:18.242Z,7.46
2023-04-15T04:50:48.066Z,7.35
2023-04-15T04:53:18.298Z,7.46
2023-04-15T04:55:48.253Z,7.27
2023-04-15T04:58:17.782Z,7.38
2023-04-15T05:00:47.810Z,7.46
2023-04-15T05:03:17.851Z,7.57
2023-04-15T05:05:49.258Z,7.27
2023-04-15T05:08:19.022Z,7.35
2023-04-15T05:10:49.263Z,7.44
2023-04-15T05:13:19.352Z,7.39
2023-04-15T05:15:49.492Z,7.32
2023-04-15T05:18:19.330Z,7.46
2023-04-15T05:20:50.164Z,7.38
2023-04-15T05:23:20.067Z,7.44
2023-04-15T05:25:50.212Z,7.44
2023-04-15T05:28:20.183Z,7.40
2023-04-15T05:30:50.178Z,7.46
2023-04-15T05:33:20.084Z,7.59
2023-04-15T05:35:50.458Z,7.60
2023-04-15T05:38:20.145Z,7.53
2023-04-15T05:40:50.295Z,7.52
2023-04-15T05:43:20.707Z,7.61
2023-04-15T05:45:50.602Z,7.77
2023-04-15T05:48:20.330Z,7.81
2023-04-15T05:50:50.144Z,7.92
2023-04-15T05:53:20.177Z,7.92
2023-04-15T05:55:50.337Z,7.75
2023-04-15T05:58:20.075Z,7.75
2023-04-15T06:00:50.008Z,7.91
2023-04-15T06:03:20.061Z,7.84
2023-04-15T06:05:49.920Z,7.98
2023-04-15T06:08:19.734Z,8.00
2023-04-15T06:10:49.669Z,8.00
2023-04-15T06:13:19.237Z,8.18
2023-04-15T06:15:49.512Z,8.40
2023-04-15T06:18:20.129Z,8.52
2023-04-15T06:20:50.131Z,8.64
2023-04-15T06:23:20.038Z,8.58
2023-04-15T06:25:49.869Z,8.63
2023-04-15T06:28:19.428Z,8.87
2023-04-15T06:30:49.349Z,9.09
2023-04-15T06:33:19.155Z,8.96
2023-04-15T06:35:49.694Z,9.02
2023-04-15T06:38:19.251Z,9.01
2023-04-15T06:40:49.394Z,9.19
2023-04-15T06:43:19.687Z,9.09
2023-04-15T06:45:49.512Z,9.17
2023-04-15T06:48:19.285Z,9.31
2023-04-15T06:50:50.145Z,9.27
2023-04-15T06:53:20.569Z,9.59
2023-04-15T06:55:50.969Z,9.68
2023-04-15T06:58:21.118Z,9.91
2023-04-15T07:00:52.121Z,10.20
2023-04-15T07:03:22.410Z,10.15
2023-04-15T07:05:52.709Z,10.04
2023-04-15T07:08:22.635Z,10.23
2023-04-15T07:10:52.471Z,10.20
2023-04-15T07:13:22.399Z,10.48
2023-04-15T07:15:52.209Z,10.67
2023-04-15T07:18:22.205Z,10.66
2023-04-15T07:20:52.694Z,10.85
2023-04-15T07:23:22.574Z,10.85
2023-04-15T07:25:52.370Z,10.82
2023-04-15T07:28:22.170Z,10.97
2023-04-15T07:30:52.413Z,11.14
2023-04-15T07:33:22.220Z,11.02
2023-04-15T07:35:52.093Z,11.02
2023-04-15T07:38:21.676Z,10.83
2023-04-15T07:40:51.632Z,11.01
2023-04-15T07:43:21.997Z,11.09
2023-04-15T07:45:52.175Z,11.34
2023-04-15T07:48:22.091Z,10.95
2023-04-15T07:50:52.769Z,11.22
2023-04-15T07:53:23.055Z,11.32
2023-04-15T07:55:52.870Z,11.58
2023-04-15T07:58:22.986Z,11.81
2023-04-15T08:00:55.153Z,11.69
2023-04-15T08:03:25.037Z,11.58
2023-04-15T08:05:55.169Z,11.58
2023-04-15T08:08:25.426Z,11.61
2023-04-15T08:10:55.304Z,11.82
2023-04-15T08:13:25.124Z,11.66
2023-04-15T08:16:16.087Z,11.71
2023-04-15T08:18:46.649Z,11.71
2023-04-15T08:21:17.639Z,11.90
2023-04-15T08:23:50.073Z,12.06
2023-04-15T08:26:21.257Z,12.33
2023-04-15T08:28:51.757Z,12.33
2023-04-15T08:31:22.251Z,12.20
2023-04-15T08:33:53.438Z,12.42
2023-04-15T08:36:23.280Z,12.42
2023-04-15T08:38:53.112Z,12.53
2023-04-15T08:41:25.327Z,12.28
2023-04-15T08:44:04.155Z,12.84
2023-04-15T08:46:35.025Z,12.75
2023-04-15T08:49:07.094Z,12.72
2023-04-15T08:51:37.620Z,13.06
2023-04-15T08:54:13.975Z,12.88
2023-04-15T08:56:43.873Z,12.89
2023-04-15T08:59:13.962Z,12.78
2023-04-15T09:01:44.425Z,13.26
2023-04-15T09:04:15.220Z,13.18
2023-04-15T09:06:44.869Z,13.56
2023-04-15T09:09:14.886Z,13.50
2023-04-15T09:11:44.705Z,13.32
2023-04-15T09:14:14.517Z,13.16
2023-04-15T09:17:03.902Z,13.12
2023-04-15T09:19:36.522Z,13.12
2023-04-15T09:22:08.179Z,12.73
2023-04-15T09:24:42.174Z,12.79
2023-04-15T09:27:12.214Z,12.85
2023-04-15T09:29:43.244Z,12.90
2023-04-15T09:32:17.061Z,12.63
2023-04-15T09:34:47.994Z,12.55
2023-04-15T09:37:31.710Z,13.15
2023-04-15T09:39:52.974Z,13.29
2023-04-15T09:42:26.710Z,13.27
2023-04-15T09:44:56.663Z,13.57
2023-04-15T09:47:33.068Z,13.42
2023-04-15T09:50:03.523Z,13.27
2023-04-15T09:52:33.552Z,13.59
2023-04-15T09:55:03.105Z,13.87
2023-04-15T09:57:41.145Z,13.73
2023-04-15T10:00:14.079Z,14.05
2023-04-15T10:02:44.414Z,13.92
2023-04-15T10:05:17.945Z,13.95
2023-04-15T10:07:48.301Z,14.37
2023-04-15T10:10:19.014Z,14.71
2023-04-15T10:12:50.554Z,14.71
2023-04-15T10:15:20.663Z,14.74
2023-04-15T10:17:51.838Z,14.66
2023-04-15T10:20:23.576Z,14.06
2023-04-15T10:22:53.976Z,14.46
2023-04-15T10:25:24.648Z,14.22
2023-04-15T10:27:54.493Z,15.14
2023-04-15T10:30:24.580Z,15.52
2023-04-15T10:32:54.869Z,14.73
2023-04-15T10:35:25.477Z,14.65
2023-04-15T10:37:55.271Z,15.15
2023-04-15T10:40:34.717Z,15.66
2023-04-15T10:43:05.395Z,15.16
2023-04-15T10:45:37.854Z,14.83
2023-04-15T10:48:10.016Z,15.03
2023-04-15T10:50:39.807Z,15.27
2023-04-15T10:53:11.859Z,15.37
2023-04-15T10:55:41.790Z,14.99
2023-04-15T10:58:12.308Z,15.20
2023-04-15T11:00:43.626Z,15.30
2023-04-15T11:03:13.360Z,15.13
2023-04-15T11:05:52.224Z,15.65
2023-04-15T11:08:23.855Z,15.68
2023-04-15T11:10:54.880Z,16.23
2023-04-15T11:13:27.101Z,16.23
2023-04-15T11:16:01.618Z,15.83
2023-04-15T11:18:33.016Z,15.50
2023-04-15T11:21:05.987Z,16.01
2023-04-15T11:23:47.245Z,16.10
2023-04-15T11:26:17.064Z,16.16
2023-04-15T11:28:48.050Z,15.91
2023-04-15T11:31:20.274Z,16.06
2023-04-15T11:34:02.984Z,16.10
2023-04-15T11:36:33.081Z,16.39
2023-04-15T11:39:02.916Z,16.28
2023-04-15T11:41:32.893Z,16.60
2023-04-15T11:44:03.067Z,16.07
2023-04-15T11:46:33.153Z,16.10
2023-04-15T11:49:04.742Z,15.72
2023-04-15T11:51:35.465Z,16.16
2023-04-15T11:54:06.552Z,16.65
2023-04-15T11:56:36.521Z,17.28
2023-04-15T11:59:06.045Z,17.02
2023-04-15T12:01:41.278Z,16.91
2023-04-15T12:04:15.952Z,16.63
2023-04-15T12:06:46.867Z,16.96
2023-04-15T12:09:17.532Z,16.78
2023-04-15T12:11:54.107Z,16.69
2023-04-15T12:14:26.735Z,16.96
2023-04-15T12:17:00.218Z,16.78
2023-04-15T12:19:39.084Z,17.42
2023-04-15T12:22:13.242Z,16.84
2023-04-15T12:24:44.338Z,16.66
2023-04-15T12:27:16.252Z,16.66
2023-04-15T12:29:46.140Z,16.65
2023-04-15T12:32:17.612Z,16.74
2023-04-15T12:34:52.650Z,16.35
2023-04-15T12:37:23.002Z,16.15
2023-04-15T12:39:53.965Z,16.25
2023-04-15T12:42:24.066Z,17.52
2023-04-15T12:44:54.076Z,17.56
2023-04-15T12:47:23.906Z,17.14
2023-04-15T12:49:53.711Z,16.96
2023-04-15T12:52:24.376Z,16.44
2023-04-15T12:54:54.866Z,16.62
2023-04-15T12:57:24.667Z,16.91
2023-04-15T12:59:54.829Z,17.07
2023-04-15T13:02:26.899Z,17.55
2023-04-15T13:04:56.994Z,16.93
2023-04-15T13:07:27.050Z,17.24
2023-04-15T13:09:56.854Z,16.49
2023-04-15T13:12:27.013Z,17.05
2023-04-15T13:14:56.862Z,16.85
2023-04-15T13:17:27.072Z,16.84
2023-04-15T13:19:57.080Z,17.14
2023-04-15T13:22:27.143Z,17.35
2023-04-15T13:24:56.987Z,17.54
2023-04-15T13:27:27.498Z,17.55
2023-04-15T13:29:57.582Z,16.75
2023-04-15T13:32:27.374Z,16.75
2023-04-15T13:34:57.236Z,15.95
2023-04-15T13:37:31.201Z,16.67
2023-04-15T13:40:01.095Z,16.52
2023-04-15T13:42:30.960Z,16.88
2023-04-15T13:45:00.906Z,16.88
2023-04-15T13:47:30.722Z,16.33
2023-04-15T13:50:00.308Z,16.33
2023-04-15T13:52:30.074Z,16.19
2023-04-15T13:55:07.210Z,16.58
2023-04-15T13:57:32.127Z,16.62
2023-04-15T14:00:02.305Z,16.08
2023-04-15T14:02:33.934Z,15.61
2023-04-15T14:05:03.845Z,15.68
2023-04-15T14:07:33.691Z,15.98
2023-04-15T14:10:03.644Z,15.76
2023-04-15T14:12:33.264Z,15.76
2023-04-15T14:15:03.153Z,15.52
2023-04-15T14:17:34.009Z,15.74
2023-04-15T14:20:03.985Z,15.24
2023-04-15T14:22:34.226Z,15.54
2023-04-15T14:25:04.076Z,15.54
2023-04-15T14:27:33.932Z,15.42
2023-04-15T14:30:03.894Z,14.99
2023-04-15T14:32:33.769Z,15.29
2023-04-15T14:35:04.304Z,15.48
2023-04-15T14:37:34.297Z,15.77
2023-04-15T14:40:07.458Z,15.65
2023-04-15T14:42:38.251Z,15.87
2023-04-15T14:45:08.383Z,15.21
2023-04-15T14:47:38.366Z,14.96
2023-04-15T14:50:10.494Z,15.15
2023-04-15T14:52:40.421Z,15.15
2023-04-15T14:55:12.668Z,14.76
2023-04-15T14:57:43.938Z,14.33
2023-04-15T15:00:16.347Z,14.03
2023-04-15T15:02:47.525Z,13.97
2023-04-15T15:05:17.534Z,13.55
2023-04-15T15:07:47.793Z,13.62
2023-04-15T15:10:17.305Z,13.73
2023-04-15T15:12:48.812Z,13.52
2023-04-15T15:15:28.598Z,13.62
2023-04-15T15:17:50.940Z,13.26
2023-04-15T15:20:20.640Z,13.87
2023-04-15T15:22:50.953Z,13.66
2023-04-15T15:25:20.945Z,13.43
2023-04-15T15:27:50.981Z,13.30
2023-04-15T15:30:20.815Z,13.20
2023-04-15T15:32:50.802Z,12.83
2023-04-15T15:35:22.365Z,12.83
2023-04-15T15:37:52.201Z,12.86
2023-04-15T15:40:22.135Z,13.25
2023-04-15T15:42:51.928Z,13.07
2023-04-15T15:45:21.781Z,12.69
2023-04-15T15:47:52.313Z,12.59
2023-04-15T15:50:22.175Z,12.59
2023-04-15T15:52:52.242Z,12.55
2023-04-15T15:55:22.044Z,12.74
2023-04-15T15:57:51.882Z,12.72
2023-04-15T16:00:21.823Z,12.42
2023-04-15T16:05:23.132Z,12.52
2023-04-15T16:07:52.936Z,12.35
2023-04-15T16:10:22.774Z,12.28
2023-04-15T16:15:29.110Z,12.74
2023-04-15T16:17:59.060Z,12.73
2023-04-15T16:20:29.020Z,12.64
2023-04-15T16:23:00.072Z,12.68
2023-04-15T16:25:30.261Z,12.38
2023-04-15T16:28:08.611Z,12.47
2023-04-15T16:30:31.752Z,12.05
2023-04-15T16:33:01.884Z,11.94
2023-04-15T16:35:33.376Z,11.94
2023-04-15T16:38:03.564Z,12.03
2023-04-15T16:40:33.495Z,11.85
2023-04-15T16:43:07.001Z,11.78
2023-04-15T16:45:36.896Z,12.28
2023-04-15T16:48:08.402Z,12.20
2023-04-15T16:50:38.692Z,11.88
2023-04-15T16:53:08.792Z,12.07
2023-04-15T16:55:38.578Z,12.11
2023-04-15T16:58:09.555Z,12.00
2023-04-15T17:00:39.533Z,11.76
2023-04-15T17:03:09.518Z,11.73
2023-04-15T17:05:39.924Z,11.69
2023-04-15T17:08:11.141Z,11.77
2023-04-15T17:10:41.586Z,11.56
2023-04-15T17:13:11.536Z,11.75
2023-04-15T17:15:41.669Z,11.53
2023-04-15T17:18:12.124Z,11.44
2023-04-15T17:20:42.033Z,11.52
2023-04-15T17:23:12.383Z,11.43
2023-04-15T17:25:42.243Z,11.48
2023-04-15T17:28:12.074Z,11.33
2023-04-15T17:30:41.992Z,11.08
2023-04-15T17:33:55.929Z,10.98
2023-04-15T17:35:43.618Z,10.95
2023-04-15T17:38:13.219Z,11.03
2023-04-15T17:40:43.341Z,11.24
2023-04-15T17:43:13.145Z,10.96
2023-04-15T17:45:43.738Z,11.00
2023-04-15T17:48:13.422Z,11.07
2023-04-15T17:50:43.274Z,11.07
2023-04-15T17:53:14.734Z,10.95
2023-04-15T17:55:44.605Z,10.82
2023-04-15T17:58:14.217Z,10.93
2023-04-15T18:00:44.115Z,11.18
2023-04-15T18:03:14.490Z,11.00
2023-04-15T18:05:44.520Z,11.04
2023-04-15T18:08:14.325Z,11.37
2023-04-15T18:10:45.751Z,11.06
2023-04-15T18:13:15.950Z,10.99
2023-04-15T18:15:47.610Z,10.76
2023-04-15T18:18:17.340Z,10.64
2023-04-15T18:20:47.434Z,10.72
2023-04-15T18:23:17.360Z,10.69
2023-04-15T18:25:47.254Z,10.61
2023-04-15T18:28:16.802Z,10.59
2023-04-15T18:30:46.678Z,10.61
2023-04-15T18:33:16.807Z,10.41
2023-04-15T18:35:48.125Z,10.41
2023-04-15T18:38:18.143Z,10.37
2023-04-15T18:40:48.245Z,10.67
2023-04-15T18:43:18.124Z,10.65
2023-04-15T18:45:48.066Z,10.61
2023-04-15T18:48:17.873Z,10.49
2023-04-15T18:50:48.258Z,10.67
2023-04-15T18:53:18.154Z,10.24
2023-04-15T18:55:48.005Z,10.12
2023-04-15T18:58:17.987Z,10.07
2023-04-15T19:00:47.883Z,9.96
2023-04-15T19:03:17.877Z,10.16
2023-04-15T19:05:48.190Z,10.25
2023-04-15T19:08:17.769Z,9.87
2023-04-15T19:10:47.611Z,10.02
2023-04-15T19:13:18.866Z,9.99
2023-04-15T19:15:48.716Z,10.10
2023-04-15T19:18:18.223Z,9.96
2023-04-15T19:20:49.755Z,10.00
2023-04-15T19:23:19.755Z,9.99
2023-04-15T19:25:49.634Z,10.19
2023-04-15T19:28:19.177Z,10.19
2023-04-15T19:30:49.327Z,10.27
2023-04-15T19:33:19.176Z,10.24
2023-04-15T19:35:49.938Z,9.98
2023-04-15T19:38:19.850Z,10.19
2023-04-15T19:40:50.577Z,10.21
2023-04-15T19:43:20.449Z,9.94
2023-04-15T19:45:52.193Z,10.02
2023-04-15T19:48:23.832Z,9.95
2023-04-15T19:50:54.115Z,9.74
2023-04-15T19:53:25.578Z,9.99
2023-04-15T19:55:55.465Z,9.93
2023-04-15T19:58:25.277Z,9.75
2023-04-15T20:00:55.089Z,9.59
2023-04-15T20:03:25.199Z,9.95
2023-04-15T20:05:55.135Z,9.87
2023-04-15T20:08:24.621Z,9.73
2023-04-15T20:10:54.601Z,9.98
2023-04-15T20:13:24.695Z,9.93
2023-04-15T20:15:54.571Z,9.95
2023-04-15T20:18:24.419Z,10.15
2023-04-15T20:20:54.246Z,10.15
2023-04-15T20:23:24.049Z,10.11
2023-04-15T20:25:53.933Z,10.11
2023-04-15T20:28:25.093Z,9.99
2023-04-15T20:30:55.345Z,10.02
2023-04-15T20:33:27.196Z,10.06
2023-04-15T20:35:57.075Z,10.06
2023-04-15T20:38:26.710Z,10.06
2023-04-15T20:40:57.821Z,10.12
2023-04-15T20:43:27.644Z,10.19
2023-04-15T20:46:00.204Z,10.22
2023-04-15T20:48:28.928Z,10.16
2023-04-15T20:50:59.047Z,10.12
2023-04-15T20:53:28.847Z,9.87
2023-04-15T20:56:00.242Z,9.53
2023-04-15T20:58:30.054Z,9.53
2023-04-15T21:01:01.956Z,9.92
2023-04-15T21:03:32.283Z,9.90
2023-04-15T21:06:02.285Z,9.78
2023-04-15T21:08:32.244Z,9.66
2023-04-15T21:11:02.381Z,9.90
2023-04-15T21:13:32.254Z,10.12
2023-04-15T21:16:02.129Z,10.03
2023-04-15T21:18:31.984Z,9.93
2023-04-15T21:21:03.222Z,9.97
2023-04-15T21:23:34.718Z,9.89
2023-04-15T21:26:06.555Z,10.03
2023-04-15T21:28:37.121Z,9.95
2023-04-15T21:31:07.194Z,9.88
2023-04-15T21:33:37.262Z,9.78
2023-04-15T21:36:08.238Z,9.84
2023-04-15T21:38:38.070Z,9.86
2023-04-15T21:41:09.711Z,9.89
2023-04-15T21:43:39.740Z,9.88
2023-04-15T21:46:22.539Z,9.98
2023-04-15T21:48:42.993Z,9.94
2023-04-15T21:51:12.955Z,9.88
2023-04-15T21:53:42.781Z,10.03
2023-04-15T21:56:12.596Z,9.87
2023-04-15T21:58:42.906Z,9.62
2023-04-15T22:01:12.711Z,9.90
2023-04-15T22:03:43.983Z,9.95
2023-04-15T22:06:13.794Z,10.02
2023-04-15T22:08:55.214Z,9.97
2023-04-15T22:11:30.367Z,10.22
2023-04-15T22:14:00.692Z,9.98
2023-04-15T22:16:30.254Z,9.86
2023-04-15T22:19:00.274Z,9.88
2023-04-15T22:21:30.058Z,9.88
2023-04-15T22:24:38.261Z,9.80
2023-04-15T22:26:31.314Z,9.90
2023-04-15T22:29:01.108Z,10.07
2023-04-15T22:31:31.150Z,10.10
2023-04-15T22:34:01.132Z,9.96
2023-04-15T22:36:31.812Z,10.07
2023-04-15T22:39:01.752Z,9.89
2023-04-15T22:41:31.534Z,9.94
2023-04-15T22:44:01.130Z,9.75
2023-04-15T22:46:31.198Z,9.72
2023-04-15T22:49:01.291Z,9.85
2023-04-15T22:51:31.437Z,9.95
2023-04-15T22:54:01.879Z,9.95
2023-04-15T22:56:31.703Z,9.92
2023-04-15T22:59:01.519Z,10.02
2023-04-15T23:01:32.173Z,10.26
2023-04-15T23:04:08.152Z,10.27
2023-04-15T23:06:33.676Z,10.31
2023-04-15T23:09:03.497Z,10.16
2023-04-15T23:11:33.364Z,10.23
2023-04-15T23:14:03.260Z,10.39
2023-04-15T23:16:33.131Z,10.39
2023-04-15T23:19:02.937Z,10.10
2023-04-15T23:21:33.031Z,10.17
2023-04-15T23:24:02.941Z,10.09
2023-04-15T23:26:32.887Z,10.27
2023-04-15T23:29:02.704Z,9.99
2023-04-15T23:31:32.202Z,10.10
2023-04-15T23:34:02.313Z,10.24
2023-04-15T23:36:32.212Z,10.29
2023-04-15T23:39:02.200Z,10.20
2023-04-15T23:41:31.930Z,10.10
2023-04-15T23:44:01.893Z,10.31
2023-04-15T23:46:31.728Z,10.17
2023-04-15T23:49:01.616Z,9.88
2023-04-15T23:51:31.481Z,10.10
2023-04-15T23:54:01.326Z,10.46
2023-04-15T23:56:31.697Z,10.28
2023-04-15T23:59:01.235Z,10.46
